La Prairie, Illinois
Current Conditions -  °F | °C
As of 9:54 AM on Friday 24 Oct 2014 (Local Time) from KUIN Reporting Station
Moderate Fog Moderate Fog  
Wind Chill: 55°   Ceiling: 200
Heat Index: 55°   Visibility: 0mi
Dew Point: 55°   Wind: 6mph
Humidity: 100%   Direction: 180°S
Pressure: 30.09"   Gusts: NA
Location:  40.15°N, 91°W
Report Text: KUIN 241454Z AUTO 18005KT M1/4SM FG VV002 13/13 A3009 RMK AO2 SLP189 T01280128 50007
Loading
Personal Weather Stations






























Interactive Weather Map
Tropical Storm Tracking
New forecast layout! Learn more

10-Day Weather Forecast

Advertisements
Track Severe Weather on mobile